Thunder Ridge (Littleton), Colorado
Current Conditions -  °F | °C
As of 1:53 PM on Wednesday 26 Nov 2014 (Local Time) from KAPA Reporting Station
Scattered Clouds Scattered Clouds  
Wind Chill: 45°   Ceiling: Unl
Heat Index: 45°   Visibility: 10mi
Dew Point: 25°   Wind: 3mph
Humidity: 46%   Direction: NA
Pressure: 30.13"   Gusts: NA
Location:  39.53461°N, 105.0094°W
Report Text: KAPA 262053Z VRB03KT 10SM FEW090 FEW150 SCT200 07/M04 A3013 RMK AO2 SLP219 ACSL DSNT NW T00721039 56014
Loading
Personal Weather Stations






























Interactive Weather Map New forecast layout! Learn more

10-Day Weather Forecast

Advertisements
Track Severe Weather on mobile